Ana Sayfa
METAR-TAF:

METAR-TAF

Havaalanları :

Winchester, Tennessee, Amerika Birleşik Devletleri

Enlem: 35-10-39N, Boylam: 086-03-58W, yükseklik: 298 m

Güncel hava durumu gözlemi

Rapor saat 17:35 UTC de 29 dakika önce yapıldı.
Rüzgar değişken yönden 4 kt
Sıcaklık 33°C
Nem 39%
Basınç 1016 hPa
Görüş mesafesi: 16.1 km
Açık gökyüzü

METAR: KBGF 251735Z AUTO VRB04KT 10SM CLR 33/17 A3000 RMK A01

Saat: 13:04 (18:04 UTC)


TAF: eksik

4.000'den fazla havaalanı için hava durumu gözlemleri ve tahminleri (METAR ve TAF raporları).

Kullanılabilir istasyonlar harita üzerinde sarı ve kırmızı noktalarla gösterilir.

İstasyonun adını görmek için fareyi noktanın üzerinde gezdirin.

Sonrasında hava gözlem ve tahminlerini görmek için tıklayın.

Haritayı değiştirmek için: yaklaştırmak için siyah artı işaretli yeşil düğmeye ve uzaklaştırmak için de eksi işaretli düğmeye hızla tıklayın; bitişik haritalar için yeşil okları kullanın.


METAR-TAF: